Time;durP1;ratioP1;P1;durP2;ratioP2;P2;SDS_P1;SDS_P2;PMS_P1;PMS_P2;Temp;Humidity;BMP_temperature;BMP_pressure;BME280_temperature;BME280_humidity;BME280_pressure;Samples;Min_cycle;Max_cycle;Signal;HPM_P1;HPM_P2
2024/04/13 00:00:04;;;;;;;2.90;0.40;;;;;;;;;;5372176;26;20078;-55
2024/04/13 00:02:39;;;;;;;0.60;0.40;;;;;;;;;;5372042;26;20012;-54
2024/04/13 00:05:10;;;;;;;1.60;0.50;;;;;;;;;;5372458;26;20019;-55
2024/04/13 00:07:36;;;;;;;2.08;0.50;;;;;;;;;;5373094;26;20367;-56
2024/04/13 00:10:03;;;;;;;1.58;0.40;;;;;;;;;;5374493;26;20062;-56
2024/04/13 00:12:31;;;;;;;0.50;0.50;;;;;;;;;;5372394;26;20574;-56
2024/04/13 00:14:57;;;;;;;1.33;0.50;;;;;;;;;;5374301;26;20056;-58
2024/04/13 00:17:22;;;;;;;0.80;0.50;;;;;;;;;;5342894;26;20019;-53
2024/04/13 00:19:51;;;;;;;0.80;0.50;;;;;;;;;;5374700;26;20463;-55
2024/04/13 00:22:17;;;;;;;1.23;0.43;;;;;;;;;;5374492;26;20069;-49
2024/04/13 00:24:43;;;;;;;2.10;0.52;;;;;;;;;;5373879;26;20004;-54
2024/04/13 00:27:09;;;;;;;0.63;0.35;;;;;;;;;;5373994;26;20005;-55
2024/04/13 00:29:36;;;;;;;0.93;0.40;;;;;;;;;;5372084;26;20480;-55
2024/04/13 00:32:05;;;;;;;2.47;0.40;;;;;;;;;;5374032;26;20404;-54
2024/04/13 00:34:33;;;;;;;0.88;0.40;;;;;;;;;;5371240;26;20008;-54
2024/04/13 00:37:03;;;;;;;1.85;0.35;;;;;;;;;;5374274;26;20634;-57
2024/04/13 00:39:30;;;;;;;0.38;0.35;;;;;;;;;;5374431;26;20008;-56
2024/04/13 00:41:55;;;;;;;0.82;0.30;;;;;;;;;;5376363;26;20004;-51
2024/04/13 00:44:22;;;;;;;1.50;0.50;;;;;;;;;;5373970;26;20043;-56
2024/04/13 00:46:48;;;;;;;1.60;0.30;;;;;;;;;;5371963;26;20363;-54
2024/04/13 00:49:15;;;;;;;0.85;0.70;;;;;;;;;;5374593;26;20008;-55
2024/04/13 00:51:44;;;;;;;0.50;0.43;;;;;;;;;;5374375;26;20077;-55
2024/04/13 00:54:14;;;;;;;1.85;0.60;;;;;;;;;;5374314;26;20008;-51
2024/04/13 00:56:41;;;;;;;0.70;0.40;;;;;;;;;;5372852;26;20495;-54
2024/04/13 00:59:06;;;;;;;1.23;0.40;;;;;;;;;;5371498;26;20139;-56
2024/04/13 01:01:32;;;;;;;0.52;0.40;;;;;;;;;;5391713;26;20008;-52
2024/04/13 01:03:58;;;;;;;2.00;0.38;;;;;;;;;;5371927;26;20008;-51
2024/04/13 01:06:28;;;;;;;1.50;0.40;;;;;;;;;;5372380;26;20000;-55
2024/04/13 01:08:54;;;;;;;1.27;0.50;;;;;;;;;;5374039;26;20004;-53
2024/04/13 01:11:21;;;;;;;1.15;0.30;;;;;;;;;;5371445;26;20004;-56
2024/04/13 01:13:47;;;;;;;0.40;0.40;;;;;;;;;;5373749;26;20738;-54
2024/04/13 01:16:14;;;;;;;2.30;0.38;;;;;;;;;;5371611;26;20475;-55
2024/04/13 01:18:41;;;;;;;0.57;0.40;;;;;;;;;;5373545;26;20001;-52
2024/04/13 01:21:06;;;;;;;0.43;0.40;;;;;;;;;;5371501;26;20019;-56
2024/04/13 01:23:35;;;;;;;0.50;0.40;;;;;;;;;;5371751;26;20008;-53
2024/04/13 01:26:01;;;;;;;1.38;0.40;;;;;;;;;;5371292;26;20008;-53
2024/04/13 01:28:29;;;;;;;1.45;0.50;;;;;;;;;;5371313;26;20032;-56
2024/04/13 01:30:55;;;;;;;0.90;0.47;;;;;;;;;;5382019;26;20018;-52
2024/04/13 01:33:22;;;;;;;3.92;0.55;;;;;;;;;;5408289;26;20026;-53
2024/04/13 01:35:48;;;;;;;1.40;0.40;;;;;;;;;;5408094;26;20088;-54
2024/04/13 01:38:14;;;;;;;0.55;0.43;;;;;;;;;;5407244;26;20004;-57
2024/04/13 01:40:40;;;;;;;0.70;0.50;;;;;;;;;;5380280;26;20093;-52
2024/04/13 01:43:06;;;;;;;1.48;0.50;;;;;;;;;;5373261;26;20052;-54
2024/04/13 01:45:32;;;;;;;0.77;0.60;;;;;;;;;;5403011;26;20004;-55
2024/04/13 01:47:59;;;;;;;0.52;0.40;;;;;;;;;;5408282;26;20004;-56
2024/04/13 01:50:25;;;;;;;0.70;0.57;;;;;;;;;;5408277;26;20008;-53
2024/04/13 01:52:50;;;;;;;2.05;0.40;;;;;;;;;;5378028;26;20004;-55
2024/04/13 01:55:16;;;;;;;1.05;0.52;;;;;;;;;;5408231;26;20054;-54
2024/04/13 01:57:42;;;;;;;2.10;0.73;;;;;;;;;;5406594;26;20010;-57
2024/04/13 02:00:08;;;;;;;1.73;0.50;;;;;;;;;;5390694;26;20845;-55
2024/04/13 02:02:34;;;;;;;0.85;0.50;;;;;;;;;;5370200;26;20375;-55
2024/04/13 02:05:00;;;;;;;1.63;0.50;;;;;;;;;;5372315;26;20004;-54
2024/04/13 02:07:29;;;;;;;2.72;0.95;;;;;;;;;;5372174;26;20867;-56
2024/04/13 02:09:54;;;;;;;0.82;0.55;;;;;;;;;;5372767;26;20031;-53
2024/04/13 02:12:21;;;;;;;0.65;0.45;;;;;;;;;;5370055;26;20479;-54
2024/04/13 02:14:47;;;;;;;1.10;0.68;;;;;;;;;;5370676;26;20015;-54
2024/04/13 02:17:12;;;;;;;1.85;0.68;;;;;;;;;;5372360;26;20004;-55
2024/04/13 02:19:39;;;;;;;1.90;0.60;;;;;;;;;;5370317;26;20459;-56
2024/04/13 02:22:05;;;;;;;4.43;0.65;;;;;;;;;;5372857;26;20036;-55
2024/04/13 02:24:31;;;;;;;2.47;0.65;;;;;;;;;;5341853;26;20004;-54
2024/04/13 02:26:57;;;;;;;1.67;0.60;;;;;;;;;;5372403;26;20001;-54
2024/04/13 02:29:25;;;;;;;1.77;0.52;;;;;;;;;;5372313;26;20016;-53
2024/04/13 02:31:51;;;;;;;0.82;0.50;;;;;;;;;;5370366;26;20023;-56
2024/04/13 02:34:17;;;;;;;0.65;0.45;;;;;;;;;;5372528;26;20021;-56
2024/04/13 02:36:44;;;;;;;1.42;0.57;;;;;;;;;;5372342;26;20094;-56
2024/04/13 02:39:09;;;;;;;1.20;0.50;;;;;;;;;;5378477;26;20008;-56
2024/04/13 02:41:35;;;;;;;2.03;0.40;;;;;;;;;;5400177;26;20562;-51
2024/04/13 02:44:01;;;;;;;2.53;0.80;;;;;;;;;;5381765;26;20004;-53
2024/04/13 02:46:27;;;;;;;0.85;0.50;;;;;;;;;;5341230;26;20072;-54
2024/04/13 02:48:53;;;;;;;0.90;0.60;;;;;;;;;;5373861;26;20008;-52
2024/04/13 02:51:19;;;;;;;1.77;0.50;;;;;;;;;;5375467;26;19996;-55
2024/04/13 02:53:46;;;;;;;0.85;0.55;;;;;;;;;;5380646;26;20471;-50
2024/04/13 02:56:14;;;;;;;1.08;0.50;;;;;;;;;;5373401;26;20359;-53
2024/04/13 02:58:40;;;;;;;2.17;0.70;;;;;;;;;;5408126;26;20008;-53
2024/04/13 03:01:07;;;;;;;2.25;0.60;;;;;;;;;;5402326;26;20126;-55
2024/04/13 03:03:33;;;;;;;3.00;0.57;;;;;;;;;;5380761;26;20410;-55
2024/04/13 03:06:00;;;;;;;0.47;0.40;;;;;;;;;;5410567;26;20015;-55
2024/04/13 03:08:26;;;;;;;4.25;0.70;;;;;;;;;;5409801;26;20014;-55
2024/04/13 03:10:55;;;;;;;2.67;0.60;;;;;;;;;;5383353;26;20008;-49
2024/04/13 03:13:21;;;;;;;1.02;0.60;;;;;;;;;;5374074;26;20000;-53
2024/04/13 03:15:57;;;;;;;1.48;0.50;;;;;;;;;;5375075;26;20032;-55
2024/04/13 03:18:23;;;;;;;1.38;0.50;;;;;;;;;;5375188;26;20018;-58
2024/04/13 03:20:48;;;;;;;0.70;0.70;;;;;;;;;;5375246;26;20004;-55
2024/04/13 03:23:14;;;;;;;1.17;0.63;;;;;;;;;;5374578;26;20498;-55
2024/04/13 03:25:41;;;;;;;2.42;0.70;;;;;;;;;;5372647;26;20081;-57
2024/04/13 03:28:08;;;;;;;1.48;0.68;;;;;;;;;;5373297;26;20018;-57
2024/04/13 03:30:35;;;;;;;8.00;0.70;;;;;;;;;;5375041;26;20086;-51
2024/04/13 03:33:03;;;;;;;1.23;0.60;;;;;;;;;;5375194;26;20081;-55
2024/04/13 03:35:28;;;;;;;0.93;0.60;;;;;;;;;;5388817;26;20008;-56
2024/04/13 03:37:57;;;;;;;1.20;0.50;;;;;;;;;;5381194;26;20005;-55
2024/04/13 03:40:23;;;;;;;1.85;0.60;;;;;;;;;;5393883;26;19999;-56
2024/04/13 03:42:48;;;;;;;3.35;0.60;;;;;;;;;;5374518;26;20502;-54
2024/04/13 03:45:17;;;;;;;1.33;0.60;;;;;;;;;;5372708;26;20008;-56
2024/04/13 03:47:43;;;;;;;0.60;0.52;;;;;;;;;;5372450;26;20004;-54
2024/04/13 03:50:09;;;;;;;1.85;0.50;;;;;;;;;;5374266;26;20001;-54
2024/04/13 03:52:34;;;;;;;1.23;0.73;;;;;;;;;;5374581;26;20004;-55
2024/04/13 03:55:01;;;;;;;6.82;0.90;;;;;;;;;;5374924;26;20114;-55
2024/04/13 03:57:27;;;;;;;2.78;0.82;;;;;;;;;;5374583;26;20004;-55
2024/04/13 03:59:53;;;;;;;2.20;0.80;;;;;;;;;;5373938;26;20023;-55
2024/04/13 04:02:19;;;;;;;3.22;0.85;;;;;;;;;;5372449;26;20347;-53
2024/04/13 04:04:44;;;;;;;1.23;0.50;;;;;;;;;;5374424;26;20011;-58
2024/04/13 04:07:10;;;;;;;1.35;0.65;;;;;;;;;;5403039;26;20077;-57
2024/04/13 04:09:35;;;;;;;2.83;0.80;;;;;;;;;;5407556;26;20589;-54
2024/04/13 04:12:02;;;;;;;3.47;0.70;;;;;;;;;;5377077;26;20501;-58
2024/04/13 04:14:27;;;;;;;0.70;0.60;;;;;;;;;;5398545;26;20348;-56
2024/04/13 04:16:54;;;;;;;3.97;1.02;;;;;;;;;;5374308;26;20023;-57
2024/04/13 04:19:22;;;;;;;3.55;0.95;;;;;;;;;;5373875;26;20004;-56
2024/04/13 04:21:48;;;;;;;2.67;0.80;;;;;;;;;;5343582;26;20016;-56
2024/04/13 04:24:15;;;;;;;1.17;0.50;;;;;;;;;;5343362;26;20004;-58
2024/04/13 04:26:40;;;;;;;1.50;0.70;;;;;;;;;;5343781;26;20394;-57
2024/04/13 04:29:07;;;;;;;2.13;0.60;;;;;;;;;;5373868;26;20496;-58
2024/04/13 04:31:33;;;;;;;2.75;0.70;;;;;;;;;;5343260;26;20081;-57
2024/04/13 04:34:00;;;;;;;4.60;0.70;;;;;;;;;;5372648;26;20004;-54
2024/04/13 04:36:25;;;;;;;1.83;0.55;;;;;;;;;;5374531;26;20058;-57
2024/04/13 04:38:51;;;;;;;2.08;0.90;;;;;;;;;;5409423;26;20490;-55
2024/04/13 04:41:17;;;;;;;4.25;0.90;;;;;;;;;;5391377;26;20008;-51
2024/04/13 04:43:43;;;;;;;6.95;0.73;;;;;;;;;;5373651;26;20019;-53
2024/04/13 04:46:09;;;;;;;1.42;0.50;;;;;;;;;;5371840;26;20004;-52
2024/04/13 04:48:35;;;;;;;8.80;0.88;;;;;;;;;;5372632;26;20074;-49
2024/04/13 04:51:02;;;;;;;3.53;0.70;;;;;;;;;;5372155;26;20406;-56
2024/04/13 04:53:28;;;;;;;2.58;0.70;;;;;;;;;;5371716;26;20014;-55
2024/04/13 04:55:54;;;;;;;6.93;1.02;;;;;;;;;;5373870;26;20008;-53
2024/04/13 04:58:19;;;;;;;0.88;0.50;;;;;;;;;;5372438;26;20011;-52
2024/04/13 05:00:45;;;;;;;1.25;0.80;;;;;;;;;;5378657;26;20003;-53
2024/04/13 05:03:11;;;;;;;1.42;0.63;;;;;;;;;;5409351;26;20018;-50
2024/04/13 05:05:36;;;;;;;1.05;0.45;;;;;;;;;;5377436;26;20509;-49
2024/04/13 05:08:02;;;;;;;2.42;0.98;;;;;;;;;;5363966;26;20016;-52
2024/04/13 05:10:28;;;;;;;2.10;0.82;;;;;;;;;;5373606;26;20008;-56
2024/04/13 05:12:54;;;;;;;2.67;1.15;;;;;;;;;;5340612;26;20074;-49
2024/04/13 05:15:19;;;;;;;4.45;0.68;;;;;;;;;;5371579;26;20506;-54
2024/04/13 05:17:45;;;;;;;1.35;0.70;;;;;;;;;;5372435;26;20360;-53
2024/04/13 05:20:11;;;;;;;3.22;0.60;;;;;;;;;;5373363;26;20019;-57
2024/04/13 05:22:37;;;;;;;2.05;0.75;;;;;;;;;;5371484;26;20467;-55
2024/04/13 05:25:03;;;;;;;3.70;0.80;;;;;;;;;;5314132;26;20004;-56
2024/04/13 05:27:29;;;;;;;4.20;0.70;;;;;;;;;;5381608;26;20506;-53
2024/04/13 05:29:55;;;;;;;1.65;0.80;;;;;;;;;;5352843;26;20488;-52
2024/04/13 05:32:21;;;;;;;3.15;1.10;;;;;;;;;;5408443;26;20003;-51
2024/04/13 05:34:47;;;;;;;3.00;0.75;;;;;;;;;;5377759;26;20363;-54
2024/04/13 05:37:13;;;;;;;1.23;0.73;;;;;;;;;;5407209;26;20018;-51
2024/04/13 05:39:38;;;;;;;3.50;0.82;;;;;;;;;;5392287;26;20495;-50
2024/04/13 05:42:04;;;;;;;5.07;1.00;;;;;;;;;;5373025;26;20004;-51
2024/04/13 05:44:31;;;;;;;5.50;0.90;;;;;;;;;;5341868;26;20019;-55
2024/04/13 05:46:57;;;;;;;2.20;1.15;;;;;;;;;;5372489;26;20969;-52
2024/04/13 05:49:23;;;;;;;2.20;0.93;;;;;;;;;;5370154;26;20040;-55
2024/04/13 05:51:48;;;;;;;6.30;1.20;;;;;;;;;;5370450;26;20104;-54
2024/04/13 05:54:14;;;;;;;6.70;1.40;;;;;;;;;;5372925;26;20054;-54
2024/04/13 05:56:40;;;;;;;8.32;1.13;;;;;;;;;;5341561;26;20004;-50
2024/04/13 05:59:05;;;;;;;8.70;1.05;;;;;;;;;;5372674;26;20005;-54
2024/04/13 06:01:32;;;;;;;3.65;0.90;;;;;;;;;;5389076;26;20081;-53
2024/04/13 06:03:58;;;;;;;3.38;1.20;;;;;;;;;;5407705;26;20011;-51
2024/04/13 06:06:23;;;;;;;4.53;0.93;;;;;;;;;;5405707;26;20047;-50
2024/04/13 06:08:49;;;;;;;4.03;0.90;;;;;;;;;;5407912;26;19996;-53
2024/04/13 06:11:15;;;;;;;2.47;0.80;;;;;;;;;;5405990;26;20027;-54
2024/04/13 06:13:41;;;;;;;1.25;0.60;;;;;;;;;;5376707;26;20004;-53
2024/04/13 06:16:07;;;;;;;4.55;1.00;;;;;;;;;;5407651;26;20015;-52
2024/04/13 06:18:33;;;;;;;4.72;1.10;;;;;;;;;;5408006;26;20007;-53
2024/04/13 06:21:00;;;;;;;1.92;0.80;;;;;;;;;;5386602;26;20491;-54
2024/04/13 06:23:26;;;;;;;5.68;1.48;;;;;;;;;;5400985;26;20043;-50
2024/04/13 06:25:52;;;;;;;7.68;1.27;;;;;;;;;;5405502;26;20019;-52
2024/04/13 06:28:23;;;;;;;3.63;0.90;;;;;;;;;;5411512;26;20482;-49
2024/04/13 06:30:49;;;;;;;7.63;1.23;;;;;;;;;;5397639;26;20004;-52
2024/04/13 06:33:16;;;;;;;3.90;0.90;;;;;;;;;;5373787;26;20008;-50
2024/04/13 06:35:42;;;;;;;3.30;1.10;;;;;;;;;;5373585;26;20020;-51
2024/04/13 06:38:08;;;;;;;4.82;1.02;;;;;;;;;;5374069;26;20722;-49
2024/04/13 06:40:35;;;;;;;2.53;1.13;;;;;;;;;;5374319;26;20004;-52
2024/04/13 06:43:02;;;;;;;4.60;1.00;;;;;;;;;;5355292;26;20363;-52
2024/04/13 06:45:28;;;;;;;2.75;1.05;;;;;;;;;;5374650;26;20078;-51
2024/04/13 06:47:53;;;;;;;4.20;1.15;;;;;;;;;;5359448;26;20012;-54
2024/04/13 06:50:19;;;;;;;5.30;0.90;;;;;;;;;;5388004;26;20018;-54
2024/04/13 06:52:44;;;;;;;2.00;0.80;;;;;;;;;;5394202;26;20015;-56
2024/04/13 06:55:10;;;;;;;5.13;1.20;;;;;;;;;;5384339;26;20023;-56
2024/04/13 06:57:37;;;;;;;4.30;1.23;;;;;;;;;;5388740;26;20008;-55
2024/04/13 07:00:02;;;;;;;6.00;1.10;;;;;;;;;;5386977;26;20008;-54
2024/04/13 07:02:30;;;;;;;2.03;1.10;;;;;;;;;;5380847;26;20369;-52
2024/04/13 07:04:57;;;;;;;3.53;1.20;;;;;;;;;;5374946;26;20019;-52
2024/04/13 07:07:23;;;;;;;2.53;0.93;;;;;;;;;;5372832;26;20553;-55
2024/04/13 07:09:48;;;;;;;3.88;1.17;;;;;;;;;;5372954;26;20040;-53
2024/04/13 07:12:14;;;;;;;3.25;1.20;;;;;;;;;;5377283;26;20020;-54
2024/04/13 07:14:40;;;;;;;1.75;0.90;;;;;;;;;;5375516;26;20000;-53
2024/04/13 07:17:07;;;;;;;7.90;1.45;;;;;;;;;;5373587;26;20078;-51
2024/04/13 07:19:32;;;;;;;1.30;0.95;;;;;;;;;;5375734;26;20490;-53
2024/04/13 07:21:58;;;;;;;4.10;1.10;;;;;;;;;;5375077;26;20008;-53
2024/04/13 07:24:27;;;;;;;4.68;1.30;;;;;;;;;;5374663;26;20016;-51
2024/04/13 07:26:54;;;;;;;6.32;1.20;;;;;;;;;;5375397;26;20016;-49
2024/04/13 07:29:19;;;;;;;6.63;1.90;;;;;;;;;;5377324;26;20004;-55
2024/04/13 07:31:46;;;;;;;9.00;1.63;;;;;;;;;;5402641;26;20082;-54
2024/04/13 07:34:12;;;;;;;2.85;1.20;;;;;;;;;;5374091;26;20029;-54
2024/04/13 07:36:37;;;;;;;3.70;1.25;;;;;;;;;;5383679;26;20059;-52
2024/04/13 07:39:03;;;;;;;7.43;1.33;;;;;;;;;;5388957;26;20059;-50
2024/04/13 07:41:29;;;;;;;2.63;1.50;;;;;;;;;;5385971;26;20360;-54
2024/04/13 07:43:54;;;;;;;2.20;1.02;;;;;;;;;;5373899;26;20019;-51
2024/04/13 07:46:21;;;;;;;3.00;1.13;;;;;;;;;;5343496;26;20036;-55
2024/04/13 07:48:47;;;;;;;4.32;1.30;;;;;;;;;;5393876;26;20003;-56
2024/04/13 07:51:12;;;;;;;6.82;1.70;;;;;;;;;;5409848;26;20115;-54
2024/04/13 07:53:38;;;;;;;3.40;1.30;;;;;;;;;;5372998;26;20382;-48
2024/04/13 07:56:04;;;;;;;6.03;1.45;;;;;;;;;;5392386;26;20059;-54
2024/04/13 07:58:30;;;;;;;5.28;1.20;;;;;;;;;;5408084;26;20091;-51
2024/04/13 08:00:55;;;;;;;1.80;1.08;;;;;;;;;;5410084;26;20004;-53
2024/04/13 08:03:23;;;;;;;6.03;1.40;;;;;;;;;;5406079;26;20004;-52
2024/04/13 08:05:50;;;;;;;2.90;1.17;;;;;;;;;;5372563;26;20472;-55
2024/04/13 08:08:15;;;;;;;13.32;1.77;;;;;;;;;;5343515;26;20004;-51
2024/04/13 08:10:42;;;;;;;1.73;1.00;;;;;;;;;;5374726;26;20023;-55
2024/04/13 08:13:08;;;;;;;1.95;1.10;;;;;;;;;;5374622;26;20044;-56
2024/04/13 08:15:38;;;;;;;3.70;1.10;;;;;;;;;;5379228;26;20004;-53
2024/04/13 08:18:04;;;;;;;5.63;1.40;;;;;;;;;;5356110;26;20019;-52
2024/04/13 08:20:30;;;;;;;12.20;2.45;;;;;;;;;;5374059;26;20116;-53
2024/04/13 08:22:56;;;;;;;1.65;0.93;;;;;;;;;;5373909;26;20018;-52
2024/04/13 08:25:22;;;;;;;3.28;0.98;;;;;;;;;;5373648;26;20015;-54
2024/04/13 08:27:47;;;;;;;3.92;1.05;;;;;;;;;;5374263;26;20014;-52
2024/04/13 08:30:13;;;;;;;3.60;1.08;;;;;;;;;;5372414;26;20566;-52
2024/04/13 08:32:39;;;;;;;1.88;0.90;;;;;;;;;;5344107;26;20868;-56
2024/04/13 08:35:05;;;;;;;2.92;1.65;;;;;;;;;;5374088;26;20019;-55
2024/04/13 08:37:31;;;;;;;4.10;1.48;;;;;;;;;;5373732;26;20008;-55
2024/04/13 08:40:00;;;;;;;4.68;1.33;;;;;;;;;;5392282;26;20011;-51
2024/04/13 08:42:32;;;;;;;3.00;1.02;;;;;;;;;;5372293;26;20019;-51
2024/04/13 08:44:59;;;;;;;5.97;1.80;;;;;;;;;;5373946;26;20078;-55
2024/04/13 08:47:25;;;;;;;2.50;1.15;;;;;;;;;;5371373;26;20468;-53
2024/04/13 08:49:52;;;;;;;3.13;1.10;;;;;;;;;;5314388;26;20004;-55
2024/04/13 08:52:18;;;;;;;2.45;1.15;;;;;;;;;;5404152;26;20004;-56
2024/04/13 08:54:45;;;;;;;9.25;1.13;;;;;;;;;;5377630;26;20433;-54
2024/04/13 08:57:14;;;;;;;3.45;1.00;;;;;;;;;;5378436;26;20004;-52
2024/04/13 08:59:40;;;;;;;5.10;1.20;;;;;;;;;;5373572;26;20057;-49
2024/04/13 09:02:09;;;;;;;3.05;0.90;;;;;;;;;;5367013;26;20380;-53
2024/04/13 09:04:34;;;;;;;;;;;;;;;;;;5409629;26;20483;-54
2024/04/13 09:07:00;;;;;;;3.10;1.15;;;;;;;;;;5370435;26;19932;-53
2024/04/13 09:09:29;;;;;;;4.75;1.10;;;;;;;;;;5343396;26;20050;-52
2024/04/13 09:11:57;;;;;;;2.55;0.80;;;;;;;;;;5373318;26;20020;-51
2024/04/13 09:14:25;;;;;;;4.55;1.35;;;;;;;;;;5373507;26;20015;-55
2024/04/13 09:16:51;;;;;;;4.55;1.35;;;;;;;;;;5373576;26;20008;-51
2024/04/13 09:19:16;;;;;;;2.30;0.90;;;;;;;;;;5372769;26;20014;-55
2024/04/13 09:21:42;;;;;;;4.95;1.02;;;;;;;;;;5342803;26;20012;-54
2024/04/13 09:24:09;;;;;;;5.07;1.13;;;;;;;;;;5373031;26;20082;-53
2024/04/13 09:26:41;;;;;;;7.43;1.33;;;;;;;;;;5373918;26;20014;-48
2024/04/13 09:29:07;;;;;;;3.60;1.13;;;;;;;;;;5373622;26;20051;-52
2024/04/13 09:31:38;;;;;;;2.90;1.25;;;;;;;;;;5342336;26;20023;-55
2024/04/13 09:34:04;;;;;;;1.30;0.80;;;;;;;;;;5373006;26;20000;-49
2024/04/13 09:36:31;;;;;;;7.18;1.30;;;;;;;;;;5342281;26;20004;-52
2024/04/13 09:38:57;;;;;;;5.15;1.20;;;;;;;;;;5399748;26;20080;-49
2024/04/13 09:41:24;;;;;;;3.28;1.30;;;;;;;;;;5398798;26;20008;-51
2024/04/13 09:43:50;;;;;;;3.13;1.58;;;;;;;;;;5406097;26;20015;-53
2024/04/13 09:46:17;;;;;;;7.70;1.60;;;;;;;;;;5400210;26;20018;-52
2024/04/13 09:48:43;;;;;;;4.82;1.95;;;;;;;;;;5342356;26;20019;-52
2024/04/13 09:51:09;;;;;;;4.43;1.52;;;;;;;;;;5372959;26;20425;-56
2024/04/13 09:53:35;;;;;;;3.03;1.20;;;;;;;;;;5372803;26;20008;-52
2024/04/13 09:56:03;;;;;;;1.67;1.02;;;;;;;;;;5371159;26;20015;-52
2024/04/13 09:58:28;;;;;;;3.60;1.20;;;;;;;;;;5375351;26;20000;-54
2024/04/13 10:00:54;;;;;;;3.42;1.02;;;;;;;;;;5382021;26;20007;-53
2024/04/13 10:03:20;;;;;;;4.90;1.63;;;;;;;;;;5411861;26;20479;-50
2024/04/13 10:05:46;;;;;;;3.92;1.58;;;;;;;;;;5411465;26;20012;-49
2024/04/13 10:08:13;;;;;;;4.13;1.30;;;;;;;;;;5397997;26;20003;-49
2024/04/13 10:10:42;;;;;;;6.25;1.52;;;;;;;;;;5393754;26;20049;-53
2024/04/13 10:13:09;;;;;;;6.65;1.30;;;;;;;;;;5400649;26;20019;-48
2024/04/13 10:15:35;;;;;;;4.15;0.98;;;;;;;;;;5376686;26;20016;-53
2024/04/13 10:18:02;;;;;;;2.83;1.50;;;;;;;;;;5392110;26;20275;-53
2024/04/13 10:20:28;;;;;;;4.32;1.77;;;;;;;;;;5385549;26;20004;-55
2024/04/13 10:22:54;;;;;;;14.45;2.45;;;;;;;;;;5375412;26;20085;-55
2024/04/13 10:25:30;;;;;;;2.92;1.20;;;;;;;;;;5375849;26;20004;-53
2024/04/13 10:28:07;;;;;;;3.03;1.30;;;;;;;;;;5375799;26;20074;-52
2024/04/13 10:30:45;;;;;;;10.80;2.10;;;;;;;;;;5375719;26;20088;-51
2024/04/13 10:33:31;;;;;;;16.20;2.70;;;;;;;;;;5373931;26;20573;-56
2024/04/13 10:36:03;;;;;;;2.60;1.42;;;;;;;;;;5375375;26;20008;-54
2024/04/13 10:38:31;;;;;;;3.60;1.02;;;;;;;;;;5375587;26;20020;-56
2024/04/13 10:40:57;;;;;;;5.75;1.35;;;;;;;;;;5382480;26;20004;-48
2024/04/13 10:43:23;;;;;;;5.22;1.33;;;;;;;;;;5375576;26;20433;-53
2024/04/13 10:45:59;;;;;;;19.45;2.83;;;;;;;;;;5399500;26;20492;-54
2024/04/13 10:48:30;;;;;;;4.93;1.80;;;;;;;;;;5392239;26;20018;-51
2024/04/13 10:50:56;;;;;;;1.98;1.10;;;;;;;;;;5373457;26;20846;-49
2024/04/13 10:53:27;;;;;;;8.73;1.40;;;;;;;;;;5372989;26;20488;-53
2024/04/13 10:55:58;;;;;;;11.98;2.22;;;;;;;;;;5376265;26;20748;-52
2024/04/13 10:58:31;;;;;;;11.60;1.73;;;;;;;;;;5409077;26;20017;-48
2024/04/13 11:00:57;;;;;;;5.43;1.10;;;;;;;;;;5402308;26;20008;-50
2024/04/13 11:03:27;;;;;;;3.00;0.85;;;;;;;;;;5372599;26;20022;-49
2024/04/13 11:05:53;;;;;;;23.38;2.85;;;;;;;;;;5384078;26;20040;-55
2024/04/13 11:08:20;;;;;;;9.52;1.27;;;;;;;;;;5375009;26;20079;-48
2024/04/13 11:10:50;;;;;;;4.68;0.63;;;;;;;;;;5374993;26;20000;-50
2024/04/13 11:13:18;;;;;;;1.63;1.00;;;;;;;;;;5375468;26;20023;-49
2024/04/13 11:15:44;;;;;;;0.90;0.73;;;;;;;;;;5375218;26;20472;-46
2024/04/13 11:18:10;;;;;;;2.00;1.00;;;;;;;;;;5375246;26;20015;-52
2024/04/13 11:20:37;;;;;;;3.00;1.13;;;;;;;;;;5375109;26;20008;-48
2024/04/13 11:23:03;;;;;;;3.42;1.13;;;;;;;;;;5373676;26;20008;-49
2024/04/13 11:25:29;;;;;;;2.38;0.90;;;;;;;;;;5375271;26;20019;-54
2024/04/13 11:27:54;;;;;;;2.08;1.10;;;;;;;;;;5372737;26;20005;-50
2024/04/13 11:30:20;;;;;;;4.68;1.30;;;;;;;;;;5375093;26;20067;-48
2024/04/13 11:32:46;;;;;;;8.88;1.90;;;;;;;;;;5375060;26;20012;-54
2024/04/13 11:35:12;;;;;;;5.03;1.42;;;;;;;;;;5372590;26;20020;-52
2024/04/13 11:37:38;;;;;;;10.88;1.30;;;;;;;;;;5372986;26;20004;-48
2024/04/13 11:40:08;;;;;;;9.27;1.30;;;;;;;;;;5374541;26;20008;-49
2024/04/13 11:42:37;;;;;;;5.93;1.23;;;;;;;;;;5410067;26;20008;-49
2024/04/13 11:45:03;;;;;;;6.55;1.30;;;;;;;;;;5410370;26;20015;-48
2024/04/13 11:47:30;;;;;;;4.07;1.15;;;;;;;;;;5400314;26;20019;-51
2024/04/13 11:49:56;;;;;;;4.95;1.00;;;;;;;;;;5373006;26;20005;-49
2024/04/13 11:52:22;;;;;;;1.80;0.90;;;;;;;;;;5314943;26;20004;-53
2024/04/13 11:54:47;;;;;;;4.65;1.02;;;;;;;;;;5374443;26;20004;-50
2024/04/13 11:57:13;;;;;;;3.15;1.15;;;;;;;;;;5372394;26;20744;-51
2024/04/13 11:59:39;;;;;;;1.73;1.02;;;;;;;;;;5375350;26;20015;-54
2024/04/13 12:02:08;;;;;;;4.15;1.08;;;;;;;;;;5391758;26;20004;-49
2024/04/13 12:04:34;;;;;;;8.98;1.58;;;;;;;;;;5373402;26;20400;-52
2024/04/13 12:06:59;;;;;;;7.90;1.20;;;;;;;;;;5374558;26;20001;-51
2024/04/13 12:09:26;;;;;;;7.82;1.38;;;;;;;;;;5373729;26;20008;-51
2024/04/13 12:11:51;;;;;;;2.75;1.00;;;;;;;;;;5372373;26;20081;-51
2024/04/13 12:14:17;;;;;;;10.82;1.60;;;;;;;;;;5374441;26;20044;-48
2024/04/13 12:16:45;;;;;;;4.53;1.10;;;;;;;;;;5343408;26;20008;-50
2024/04/13 12:19:11;;;;;;;11.00;1.40;;;;;;;;;;5374569;26;20375;-53
2024/04/13 12:21:36;;;;;;;1.95;1.00;;;;;;;;;;5373542;26;20008;-49
2024/04/13 12:24:04;;;;;;;2.03;0.98;;;;;;;;;;5374456;26;20037;-48
2024/04/13 12:26:30;;;;;;;3.45;1.30;;;;;;;;;;5314569;26;20091;-53
2024/04/13 12:28:56;;;;;;;6.95;1.45;;;;;;;;;;5343535;26;20009;-50
2024/04/13 12:31:21;;;;;;;4.97;1.33;;;;;;;;;;5380562;26;20000;-49
2024/04/13 12:33:47;;;;;;;2.83;1.20;;;;;;;;;;5406462;26;20015;-53
2024/04/13 12:36:13;;;;;;;7.07;1.00;;;;;;;;;;5400172;26;20004;-52
2024/04/13 12:38:39;;;;;;;2.05;1.00;;;;;;;;;;5388217;26;20012;-53
2024/04/13 12:41:04;;;;;;;6.05;1.38;;;;;;;;;;5385929;26;20041;-56
2024/04/13 12:43:30;;;;;;;4.47;1.50;;;;;;;;;;5386653;26;20375;-50
2024/04/13 12:45:56;;;;;;;2.78;0.90;;;;;;;;;;5391988;26;20383;-50
2024/04/13 12:48:22;;;;;;;5.15;2.60;;;;;;;;;;5360685;26;20008;-49
2024/04/13 12:50:48;;;;;;;3.65;1.48;;;;;;;;;;5384259;26;20598;-51
2024/04/13 12:53:14;;;;;;;5.25;1.10;;;;;;;;;;5390126;26;20376;-53
2024/04/13 12:55:39;;;;;;;11.23;1.48;;;;;;;;;;5373517;26;20024;-50
2024/04/13 12:58:06;;;;;;;4.20;1.10;;;;;;;;;;5392292;26;20486;-55
2024/04/13 13:00:32;;;;;;;2.72;1.10;;;;;;;;;;5384631;26;20075;-54
2024/04/13 13:02:58;;;;;;;5.05;1.20;;;;;;;;;;5386072;26;20943;-56
2024/04/13 13:05:24;;;;;;;2.53;1.20;;;;;;;;;;5360193;26;20371;-53
2024/04/13 13:07:50;;;;;;;7.85;1.10;;;;;;;;;;5390424;26;20012;-52
2024/04/13 13:10:15;;;;;;;2.80;1.10;;;;;;;;;;5391661;26;20086;-51
2024/04/13 13:12:41;;;;;;;7.10;1.27;;;;;;;;;;5358175;26;20588;-50
2024/04/13 13:15:07;;;;;;;5.55;1.17;;;;;;;;;;5360975;26;20019;-51
2024/04/13 13:17:33;;;;;;;6.45;1.30;;;;;;;;;;5388018;26;20031;-54
2024/04/13 13:19:59;;;;;;;3.15;1.27;;;;;;;;;;5392173;26;20184;-55
2024/04/13 13:22:25;;;;;;;7.38;1.48;;;;;;;;;;5372269;26;20402;-53
2024/04/13 13:24:52;;;;;;;3.47;1.50;;;;;;;;;;5342926;26;20015;-55
2024/04/13 13:27:19;;;;;;;8.38;1.45;;;;;;;;;;5372126;26;20024;-53
2024/04/13 13:29:44;;;;;;;4.68;1.50;;;;;;;;;;5342371;26;20019;-54
2024/04/13 13:32:10;;;;;;;3.67;1.70;;;;;;;;;;5369642;26;20008;-53
2024/04/13 13:34:37;;;;;;;5.78;1.42;;;;;;;;;;5371429;26;20074;-55
2024/04/13 13:37:05;;;;;;;8.73;1.48;;;;;;;;;;5383645;26;20003;-50
2024/04/13 13:39:31;;;;;;;8.10;1.67;;;;;;;;;;5383473;26;20476;-55
2024/04/13 13:41:57;;;;;;;5.93;1.40;;;;;;;;;;5393001;26;20290;-52
2024/04/13 13:44:23;;;;;;;4.53;1.23;;;;;;;;;;5388444;26;20021;-55
2024/04/13 13:46:48;;;;;;;12.05;1.63;;;;;;;;;;5391616;26;20444;-53
2024/04/13 13:49:14;;;;;;;2.60;1.30;;;;;;;;;;5389317;26;20014;-51
2024/04/13 13:51:40;;;;;;;2.40;1.35;;;;;;;;;;5389035;26;20008;-52
2024/04/13 13:54:07;;;;;;;4.13;1.35;;;;;;;;;;5391415;26;20003;-53
2024/04/13 13:56:32;;;;;;;6.88;1.30;;;;;;;;;;5389285;26;20004;-54
2024/04/13 13:58:58;;;;;;;7.30;1.55;;;;;;;;;;5356931;26;20008;-49
2024/04/13 14:01:24;;;;;;;5.97;1.70;;;;;;;;;;5391844;26;20011;-52
2024/04/13 14:03:50;;;;;;;6.15;1.63;;;;;;;;;;5371014;26;20098;-55
2024/04/13 14:06:15;;;;;;;3.42;1.30;;;;;;;;;;5375270;26;20023;-52
2024/04/13 14:08:43;;;;;;;6.85;1.50;;;;;;;;;;5405852;26;20019;-49
2024/04/13 14:11:09;;;;;;;4.28;1.30;;;;;;;;;;5376537;26;20008;-51
2024/04/13 14:13:35;;;;;;;4.70;1.45;;;;;;;;;;5384649;26;20238;-54
2024/04/13 14:16:00;;;;;;;4.57;1.55;;;;;;;;;;5372862;26;20016;-57
2024/04/13 14:18:26;;;;;;;3.33;1.48;;;;;;;;;;5370564;26;20001;-53
2024/04/13 14:20:51;;;;;;;3.88;1.40;;;;;;;;;;5370249;26;20008;-51
2024/04/13 14:23:17;;;;;;;6.45;1.50;;;;;;;;;;5371251;26;20000;-56
2024/04/13 14:25:43;;;;;;;10.00;1.98;;;;;;;;;;5372655;26;20035;-53
2024/04/13 14:28:09;;;;;;;5.57;1.30;;;;;;;;;;5372612;26;20054;-56
2024/04/13 14:30:34;;;;;;;5.68;1.55;;;;;;;;;;5370655;26;20032;-56
2024/04/13 14:33:00;;;;;;;6.75;1.45;;;;;;;;;;5371811;26;20001;-55
2024/04/13 14:35:25;;;;;;;4.43;1.27;;;;;;;;;;5372104;26;20004;-54
2024/04/13 14:37:53;;;;;;;6.45;1.60;;;;;;;;;;5371902;26;20010;-52